createdAt,value
2019-03-23T00:01:30.754Z,15.83
2019-03-23T00:03:59.676Z,15.78
2019-03-23T00:06:31.034Z,15.80
2019-03-23T00:08:58.655Z,15.10
2019-03-23T00:11:27.238Z,15.63
2019-03-23T00:13:55.918Z,15.90
2019-03-23T00:16:24.366Z,15.38
2019-03-23T00:18:55.471Z,17.12
2019-03-23T00:21:23.642Z,16.97
2019-03-23T00:23:52.819Z,14.78
2019-03-23T00:26:21.913Z,15.63
2019-03-23T00:28:51.481Z,15.32
2019-03-23T00:31:20.076Z,14.18
2019-03-23T00:33:48.584Z,13.15
2019-03-23T00:36:17.086Z,14.60
2019-03-23T00:38:45.650Z,14.00
2019-03-23T00:41:14.146Z,14.63
2019-03-23T00:43:42.717Z,14.30
2019-03-23T00:46:11.298Z,13.72
2019-03-23T00:48:39.767Z,14.83
2019-03-23T00:51:08.219Z,13.93
2019-03-23T00:53:36.742Z,14.33
2019-03-23T00:56:05.179Z,13.43
2019-03-23T00:58:33.671Z,13.50
2019-03-23T01:01:02.144Z,14.03
2019-03-23T01:03:30.669Z,12.75
2019-03-23T01:05:59.163Z,12.85
2019-03-23T01:08:27.738Z,13.40
2019-03-23T01:10:56.223Z,15.20
2019-03-23T01:13:24.688Z,14.78
2019-03-23T01:15:53.175Z,14.25
2019-03-23T01:18:21.656Z,14.47
2019-03-23T01:20:50.173Z,14.10
2019-03-23T01:23:18.619Z,13.65
2019-03-23T01:25:47.059Z,13.53
2019-03-23T01:28:15.581Z,14.60
2019-03-23T01:30:44.062Z,15.30
2019-03-23T01:33:12.514Z,15.60
2019-03-23T01:35:41.027Z,14.78
2019-03-23T01:38:09.426Z,14.73
2019-03-23T01:40:37.989Z,16.07
2019-03-23T01:43:06.687Z,13.53
2019-03-23T01:45:35.149Z,14.58
2019-03-23T01:48:03.643Z,14.33
2019-03-23T01:50:32.117Z,14.93
2019-03-23T01:53:00.607Z,15.45
2019-03-23T01:55:29.074Z,14.85
2019-03-23T01:57:57.527Z,16.15
2019-03-23T02:00:26.044Z,18.25
2019-03-23T02:02:54.518Z,19.52
2019-03-23T02:05:23.005Z,18.10
2019-03-23T02:07:51.475Z,16.62
2019-03-23T02:10:19.931Z,16.80
2019-03-23T02:12:48.545Z,19.00
2019-03-23T02:15:17.079Z,17.42
2019-03-23T02:17:45.614Z,16.27
2019-03-23T02:20:14.975Z,14.95
2019-03-23T02:22:43.498Z,17.05
2019-03-23T02:25:12.832Z,15.40
2019-03-23T02:27:41.382Z,16.02
2019-03-23T02:30:11.297Z,15.55
2019-03-23T02:32:39.889Z,15.25
2019-03-23T02:35:08.980Z,14.50
2019-03-23T02:37:37.566Z,14.47
2019-03-23T02:40:07.138Z,15.03
2019-03-23T02:42:35.648Z,14.93
2019-03-23T02:45:05.564Z,15.18
2019-03-23T02:47:40.595Z,15.98
2019-03-23T02:50:14.143Z,14.20
2019-03-23T02:52:46.960Z,14.45
2019-03-23T02:55:15.384Z,18.25
2019-03-23T02:57:43.840Z,16.45
2019-03-23T03:00:13.763Z,16.15
2019-03-23T03:02:42.200Z,15.23
2019-03-23T03:05:11.363Z,14.98
2019-03-23T03:07:42.719Z,16.12
2019-03-23T03:10:11.376Z,16.12
2019-03-23T03:12:39.795Z,16.30
2019-03-23T03:15:09.456Z,16.75
2019-03-23T03:17:37.941Z,17.10
2019-03-23T03:20:07.853Z,16.97
2019-03-23T03:22:36.437Z,16.52
2019-03-23T03:25:06.338Z,16.40
2019-03-23T03:27:34.935Z,17.25
2019-03-23T03:30:04.425Z,16.57
2019-03-23T03:32:32.921Z,17.23
2019-03-23T03:35:01.345Z,16.15
2019-03-23T03:37:29.885Z,16.95
2019-03-23T03:39:58.299Z,18.35
2019-03-23T03:42:26.743Z,15.25
2019-03-23T03:44:55.326Z,16.48
2019-03-23T03:47:23.808Z,16.23
2019-03-23T03:49:52.284Z,17.98
2019-03-23T03:52:20.736Z,17.48
2019-03-23T03:54:49.220Z,17.73
2019-03-23T03:57:17.732Z,17.20
2019-03-23T03:59:46.218Z,17.60
2019-03-23T04:02:14.711Z,18.05
2019-03-23T04:04:43.280Z,15.98
2019-03-23T04:07:11.772Z,17.95
2019-03-23T04:09:40.476Z,16.87
2019-03-23T04:12:09.724Z,17.00
2019-03-23T04:14:38.228Z,17.00
2019-03-23T04:17:06.707Z,17.85
2019-03-23T04:19:35.230Z,17.75
2019-03-23T04:22:03.676Z,17.55
2019-03-23T04:24:32.152Z,17.00
2019-03-23T04:27:02.193Z,17.25
2019-03-23T04:29:30.751Z,17.92
2019-03-23T04:31:59.232Z,17.98
2019-03-23T04:34:27.815Z,18.25
2019-03-23T04:36:56.501Z,18.40
2019-03-23T04:39:24.985Z,16.42
2019-03-23T04:41:53.565Z,17.87
2019-03-23T04:44:22.038Z,17.87
2019-03-23T04:46:50.487Z,17.80
2019-03-23T04:49:18.994Z,18.30
2019-03-23T04:51:47.451Z,18.10
2019-03-23T04:54:15.973Z,19.48
2019-03-23T04:56:44.507Z,19.32
2019-03-23T04:59:12.976Z,19.42
2019-03-23T05:01:41.515Z,16.95
2019-03-23T05:04:09.998Z,18.00
2019-03-23T05:06:38.522Z,19.15
2019-03-23T05:09:08.769Z,20.92
2019-03-23T05:11:37.284Z,18.52
2019-03-23T05:14:05.818Z,18.75
2019-03-23T05:16:34.457Z,18.32
2019-03-23T05:19:02.936Z,19.42
2019-03-23T05:21:31.427Z,19.23
2019-03-23T05:23:59.995Z,18.02
2019-03-23T05:26:28.529Z,20.45
2019-03-23T05:28:56.978Z,20.30
2019-03-23T05:31:25.541Z,20.65
2019-03-23T05:33:53.942Z,20.43
2019-03-23T05:36:22.395Z,19.20
2019-03-23T05:38:50.985Z,19.25
2019-03-23T05:41:19.465Z,20.15
2019-03-23T05:43:47.941Z,19.00
2019-03-23T05:46:16.428Z,18.80
2019-03-23T05:48:44.863Z,21.02
2019-03-23T05:51:13.340Z,20.08
2019-03-23T05:53:41.830Z,18.55
2019-03-23T05:56:10.267Z,19.90
2019-03-23T05:58:38.755Z,19.62
2019-03-23T06:01:07.314Z,18.92
2019-03-23T06:03:36.206Z,18.70
2019-03-23T06:06:05.096Z,20.77
2019-03-23T06:08:33.988Z,22.42
2019-03-23T06:11:02.834Z,20.52
2019-03-23T06:13:31.669Z,18.87
2019-03-23T06:16:00.557Z,34.30
2019-03-23T06:18:29.448Z,42.17
2019-03-23T06:20:58.441Z,22.85
2019-03-23T06:23:27.314Z,20.85
2019-03-23T06:25:56.224Z,24.25
2019-03-23T06:28:25.215Z,21.07
2019-03-23T06:30:53.798Z,19.98
2019-03-23T06:33:22.479Z,19.70
2019-03-23T06:35:50.968Z,21.93
2019-03-23T06:38:19.436Z,22.42
2019-03-23T06:40:47.888Z,20.77
2019-03-23T06:43:16.414Z,21.52
2019-03-23T06:45:44.955Z,20.10
2019-03-23T06:48:13.819Z,20.92
2019-03-23T06:50:42.774Z,20.23
2019-03-23T06:53:11.660Z,20.07
2019-03-23T06:55:40.558Z,19.13
2019-03-23T06:58:09.448Z,23.60
2019-03-23T07:00:38.441Z,21.87
2019-03-23T07:03:07.332Z,23.53
2019-03-23T07:05:36.222Z,24.23
2019-03-23T07:08:05.931Z,23.30
2019-03-23T07:10:34.927Z,25.43
2019-03-23T07:13:03.814Z,23.53
2019-03-23T07:15:32.808Z,26.37
2019-03-23T07:18:01.803Z,24.70
2019-03-23T07:20:30.691Z,29.30
2019-03-23T07:22:59.585Z,33.10
2019-03-23T07:25:28.408Z,40.30
2019-03-23T07:27:57.364Z,40.90
2019-03-23T07:30:26.262Z,42.00
2019-03-23T07:32:55.179Z,44.90
2019-03-23T07:35:24.140Z,37.60
2019-03-23T07:37:53.132Z,41.23
2019-03-23T07:40:22.044Z,40.07
2019-03-23T07:42:50.606Z,35.53
2019-03-23T07:45:19.497Z,41.77
2019-03-23T07:47:48.394Z,39.80
2019-03-23T07:50:16.815Z,40.00
2019-03-23T07:52:45.300Z,38.20
2019-03-23T07:55:17.723Z,41.70
2019-03-23T07:57:46.623Z,34.97
2019-03-23T08:00:18.460Z,38.43
2019-03-23T08:02:48.839Z,39.47
2019-03-23T08:05:18.508Z,33.37
2019-03-23T08:07:47.500Z,36.77
2019-03-23T08:10:34.824Z,35.43
2019-03-23T08:13:04.417Z,36.50
2019-03-23T08:15:33.267Z,38.80
2019-03-23T08:18:02.109Z,39.10
2019-03-23T08:20:30.997Z,39.80
2019-03-23T08:22:59.849Z,37.37
2019-03-23T08:25:28.690Z,37.90
2019-03-23T08:27:57.578Z,38.00
2019-03-23T08:30:26.424Z,36.73
2019-03-23T08:32:55.276Z,41.27
2019-03-23T08:35:24.220Z,36.67
2019-03-23T08:37:53.044Z,38.83
2019-03-23T08:40:21.938Z,36.10
2019-03-23T08:42:50.839Z,38.07
2019-03-23T08:45:19.683Z,36.90
2019-03-23T08:47:48.825Z,40.50
2019-03-23T08:50:17.710Z,38.90
2019-03-23T08:52:46.671Z,38.83
2019-03-23T08:55:15.512Z,38.47
2019-03-23T08:57:44.407Z,37.93
2019-03-23T09:00:13.458Z,37.30
2019-03-23T09:02:42.310Z,41.37
2019-03-23T09:05:11.290Z,39.37
2019-03-23T09:07:40.130Z,36.87
2019-03-23T09:10:09.415Z,39.90
2019-03-23T09:12:38.263Z,39.17
2019-03-23T09:15:09.116Z,38.10
2019-03-23T09:17:38.029Z,40.23
2019-03-23T09:20:09.498Z,38.33
2019-03-23T09:22:38.343Z,38.90
2019-03-23T09:25:07.288Z,37.67
2019-03-23T09:27:36.176Z,34.53
2019-03-23T09:30:10.060Z,41.17
2019-03-23T09:32:39.027Z,38.90
2019-03-23T09:35:08.359Z,36.00
2019-03-23T09:37:38.165Z,36.70
2019-03-23T09:40:11.105Z,38.90
2019-03-23T09:42:38.412Z,37.93
2019-03-23T09:45:08.441Z,36.63
2019-03-23T09:47:38.108Z,34.20
2019-03-23T09:50:10.496Z,33.97
2019-03-23T09:52:39.390Z,37.33
2019-03-23T09:55:08.641Z,34.90
2019-03-23T09:57:37.487Z,36.80
2019-03-23T10:00:09.180Z,37.60
2019-03-23T10:02:38.051Z,31.10
2019-03-23T10:05:08.983Z,37.73
2019-03-23T10:07:37.879Z,37.73
2019-03-23T10:10:07.672Z,36.20
2019-03-23T10:12:36.529Z,37.80
2019-03-23T10:15:07.916Z,37.70
2019-03-23T10:17:36.866Z,36.50
2019-03-23T10:20:07.228Z,35.40
2019-03-23T10:22:36.318Z,36.80
2019-03-23T10:25:07.063Z,37.57
2019-03-23T10:27:36.075Z,36.57
2019-03-23T10:30:08.772Z,36.50
2019-03-23T10:32:37.763Z,36.97
2019-03-23T10:35:08.716Z,38.50
2019-03-23T10:37:37.600Z,34.30
2019-03-23T10:40:10.847Z,35.73
2019-03-23T10:42:39.718Z,37.80
2019-03-23T10:45:10.081Z,36.17
2019-03-23T10:47:38.996Z,34.03
2019-03-23T10:50:09.382Z,37.13
2019-03-23T10:52:38.279Z,35.33
2019-03-23T10:55:08.219Z,35.98
2019-03-23T10:57:37.097Z,34.43
2019-03-23T11:00:14.179Z,33.20
2019-03-23T11:02:43.070Z,34.70
2019-03-23T11:05:13.379Z,31.80
2019-03-23T11:07:42.390Z,30.97
2019-03-23T11:10:14.253Z,33.47
2019-03-23T11:12:43.145Z,32.97
2019-03-23T11:15:12.854Z,32.50
2019-03-23T11:17:41.844Z,34.00
2019-03-23T11:20:15.808Z,29.37
2019-03-23T11:22:44.748Z,30.20
2019-03-23T11:25:13.840Z,34.40
2019-03-23T11:27:42.725Z,29.87
2019-03-23T11:30:14.388Z,32.63
2019-03-23T11:32:43.381Z,30.57
2019-03-23T11:35:12.494Z,29.87
2019-03-23T11:37:42.221Z,31.40
2019-03-23T11:40:11.796Z,29.70
2019-03-23T11:42:49.146Z,30.50
2019-03-23T11:45:11.864Z,29.50
2019-03-23T11:47:40.712Z,30.20
2019-03-23T11:50:10.111Z,28.00
2019-03-23T11:52:39.050Z,28.47
2019-03-23T11:55:08.192Z,22.97
2019-03-23T11:57:37.414Z,25.80
2019-03-23T12:00:12.252Z,27.57
2019-03-23T12:02:41.288Z,65.53
2019-03-23T12:05:11.628Z,25.60
2019-03-23T12:07:40.607Z,23.57
2019-03-23T12:10:13.823Z,24.37
2019-03-23T12:12:43.188Z,21.83
2019-03-23T12:15:13.774Z,21.03
2019-03-23T12:17:42.651Z,20.20
2019-03-23T12:20:11.987Z,19.17
2019-03-23T12:22:40.965Z,18.90
2019-03-23T12:25:10.871Z,20.80
2019-03-23T12:27:40.077Z,21.10
2019-03-23T12:30:12.221Z,21.37
2019-03-23T12:32:41.302Z,20.13
2019-03-23T12:35:10.381Z,18.33
2019-03-23T12:37:39.435Z,17.23
2019-03-23T12:40:09.221Z,17.63
2019-03-23T12:42:38.061Z,18.70
2019-03-23T12:45:08.111Z,19.80
2019-03-23T12:47:36.987Z,18.53
2019-03-23T12:50:07.628Z,18.60
2019-03-23T12:52:36.537Z,17.60
2019-03-23T12:55:07.428Z,18.80
2019-03-23T12:57:36.386Z,17.93
2019-03-23T13:00:13.981Z,18.77
2019-03-23T13:02:42.873Z,19.87
2019-03-23T13:05:11.865Z,18.43
2019-03-23T13:07:40.858Z,18.87
2019-03-23T13:10:14.339Z,17.80
2019-03-23T13:12:43.279Z,18.50
2019-03-23T13:15:13.575Z,18.37
2019-03-23T13:17:42.551Z,18.53
2019-03-23T13:20:12.052Z,18.17
2019-03-23T13:22:41.170Z,17.63
2019-03-23T13:25:10.440Z,16.27
2019-03-23T13:27:39.291Z,17.23
2019-03-23T13:30:18.556Z,18.00
2019-03-23T13:32:47.383Z,17.83
2019-03-23T13:35:16.227Z,18.17
2019-03-23T13:37:45.316Z,18.40
2019-03-23T13:40:14.200Z,17.70
2019-03-23T13:42:43.040Z,16.47
2019-03-23T13:45:12.086Z,18.13
2019-03-23T13:47:40.972Z,18.80
2019-03-23T13:50:11.324Z,18.37
2019-03-23T13:52:40.265Z,17.67
2019-03-23T13:55:13.098Z,18.13
2019-03-23T13:57:41.996Z,19.37
2019-03-23T14:00:11.245Z,17.20
2019-03-23T14:02:40.120Z,18.57
2019-03-23T14:05:16.105Z,18.27
2019-03-23T14:07:39.834Z,18.47
2019-03-23T14:10:08.957Z,18.77
2019-03-23T14:12:37.803Z,17.33
2019-03-23T14:15:07.472Z,18.60
2019-03-23T14:17:36.495Z,17.57
2019-03-23T14:20:06.988Z,17.03
2019-03-23T14:22:35.972Z,18.77
2019-03-23T14:25:07.012Z,16.47
2019-03-23T14:27:36.046Z,19.67
2019-03-23T14:30:07.148Z,18.37
2019-03-23T14:32:36.023Z,16.70
2019-03-23T14:35:06.652Z,17.63
2019-03-23T14:37:35.532Z,17.90
2019-03-23T14:40:07.162Z,18.20
2019-03-23T14:42:36.307Z,17.80
2019-03-23T14:45:08.019Z,17.40
2019-03-23T14:47:37.084Z,18.17
2019-03-23T14:50:06.739Z,16.67
2019-03-23T14:52:35.663Z,16.47
2019-03-23T14:55:05.807Z,16.97
2019-03-23T14:57:34.751Z,17.30
2019-03-23T15:00:07.553Z,18.53
2019-03-23T15:02:36.630Z,18.33
2019-03-23T15:05:07.828Z,18.10
2019-03-23T15:07:37.002Z,16.63
2019-03-23T15:10:08.551Z,15.70
2019-03-23T15:12:37.421Z,17.33
2019-03-23T15:15:07.599Z,16.53
2019-03-23T15:17:37.079Z,19.10
2019-03-23T15:20:06.707Z,16.90
2019-03-23T15:22:35.875Z,16.83
2019-03-23T15:25:06.024Z,17.40
2019-03-23T15:27:34.959Z,18.27
2019-03-23T15:30:07.508Z,17.97
2019-03-23T15:32:36.430Z,16.97
2019-03-23T15:35:07.404Z,17.30
2019-03-23T15:37:36.561Z,16.97
2019-03-23T15:40:07.671Z,16.20
2019-03-23T15:42:36.739Z,14.50
2019-03-23T15:45:09.764Z,15.83
2019-03-23T15:47:38.743Z,19.30
2019-03-23T15:50:09.603Z,20.93
2019-03-23T15:52:38.823Z,23.00
2019-03-23T15:55:08.342Z,19.23
2019-03-23T15:57:37.217Z,14.67
2019-03-23T16:00:10.839Z,14.97
2019-03-23T16:02:39.889Z,13.90
2019-03-23T16:05:09.236Z,14.63
2019-03-23T16:07:38.505Z,14.13
2019-03-23T16:10:08.903Z,13.50
2019-03-23T16:12:38.344Z,13.70
2019-03-23T16:15:10.389Z,14.53
2019-03-23T16:17:39.296Z,14.10
2019-03-23T16:20:10.644Z,13.97
2019-03-23T16:22:39.739Z,12.60
2019-03-23T16:25:09.652Z,13.17
2019-03-23T16:27:38.699Z,12.40
2019-03-23T16:30:09.686Z,12.00
2019-03-23T16:32:38.844Z,12.43
2019-03-23T16:35:08.911Z,11.40
2019-03-23T16:37:38.163Z,12.07
2019-03-23T16:40:09.656Z,12.83
2019-03-23T16:42:45.330Z,11.07
2019-03-23T16:45:10.678Z,12.30
2019-03-23T16:47:39.959Z,10.90
2019-03-23T16:50:09.941Z,17.30
2019-03-23T16:52:39.382Z,12.90
2019-03-23T16:55:11.167Z,13.17
2019-03-23T16:57:40.194Z,12.73
2019-03-23T17:00:14.350Z,12.37
2019-03-23T17:02:43.197Z,12.93
2019-03-23T17:05:12.286Z,14.00
2019-03-23T17:07:41.124Z,13.70
2019-03-23T17:10:10.269Z,12.13
2019-03-23T17:12:39.160Z,12.40
2019-03-23T17:15:08.604Z,12.17
2019-03-23T17:17:37.439Z,13.40
2019-03-23T17:20:06.414Z,16.50
2019-03-23T17:22:35.265Z,16.10
2019-03-23T17:25:06.247Z,12.90
2019-03-23T17:27:35.130Z,12.23
2019-03-23T17:30:05.679Z,13.70
2019-03-23T17:32:34.584Z,15.20
2019-03-23T17:35:04.141Z,13.50
2019-03-23T17:37:32.984Z,12.40
2019-03-23T17:40:01.879Z,12.30
2019-03-23T17:42:30.719Z,12.93
2019-03-23T17:44:59.561Z,11.80
2019-03-23T17:47:28.448Z,11.70
2019-03-23T17:49:57.365Z,12.60
2019-03-23T17:52:26.172Z,13.97
2019-03-23T17:54:55.056Z,13.30
2019-03-23T17:57:23.903Z,14.60
2019-03-23T17:59:52.736Z,13.73
2019-03-23T18:02:21.619Z,14.30
2019-03-23T18:04:50.465Z,14.93
2019-03-23T18:07:19.346Z,12.27
2019-03-23T18:09:48.298Z,14.50
2019-03-23T18:12:17.145Z,13.97
2019-03-23T18:14:46.042Z,13.43
2019-03-23T18:17:14.887Z,15.17
2019-03-23T18:19:43.721Z,14.30
2019-03-23T18:22:12.617Z,13.70
2019-03-23T18:24:41.478Z,15.40
2019-03-23T18:27:10.316Z,15.43
2019-03-23T18:29:39.196Z,14.30
2019-03-23T18:32:08.043Z,15.37
2019-03-23T18:34:36.888Z,13.60
2019-03-23T18:37:05.772Z,14.90
2019-03-23T18:39:34.615Z,14.73
2019-03-23T18:42:03.457Z,24.00
2019-03-23T18:44:32.346Z,17.77
2019-03-23T18:47:01.200Z,17.87
2019-03-23T18:49:30.045Z,18.60
2019-03-23T18:51:58.931Z,19.90
2019-03-23T18:54:27.777Z,17.53
2019-03-23T18:56:56.620Z,16.63
2019-03-23T18:59:27.228Z,15.90
2019-03-23T19:01:56.156Z,16.20
2019-03-23T19:04:25.085Z,16.50
2019-03-23T19:06:53.976Z,17.47
2019-03-23T19:09:22.870Z,16.20
2019-03-23T19:11:51.860Z,16.43
2019-03-23T19:14:20.852Z,16.53
2019-03-23T19:16:49.690Z,14.83
2019-03-23T19:19:19.661Z,15.77
2019-03-23T19:21:50.698Z,15.70
2019-03-23T19:24:19.391Z,16.80
2019-03-23T19:26:48.320Z,15.87
2019-03-23T19:29:17.717Z,15.63
2019-03-23T19:31:46.719Z,15.60
2019-03-23T19:34:15.969Z,15.80
2019-03-23T19:36:45.665Z,16.77
2019-03-23T19:39:14.678Z,15.90
2019-03-23T19:41:43.724Z,15.63
2019-03-23T19:44:13.689Z,15.00
2019-03-23T19:46:42.989Z,16.03
2019-03-23T19:49:15.360Z,15.67
2019-03-23T19:51:44.558Z,16.50
2019-03-23T19:54:15.702Z,15.87
2019-03-23T19:56:45.206Z,15.93
2019-03-23T19:59:14.405Z,15.77
2019-03-23T20:01:44.524Z,15.80
2019-03-23T20:04:13.945Z,16.10
2019-03-23T20:06:43.521Z,16.40
2019-03-23T20:09:12.443Z,16.50
2019-03-23T20:11:41.325Z,16.80
2019-03-23T20:14:10.202Z,17.97
2019-03-23T20:16:39.196Z,15.07
2019-03-23T20:19:08.158Z,16.83
2019-03-23T20:21:37.127Z,16.20
2019-03-23T20:24:06.156Z,15.73
2019-03-23T20:26:35.527Z,16.47
2019-03-23T20:29:04.513Z,16.30
2019-03-23T20:31:33.564Z,15.83
2019-03-23T20:34:02.765Z,16.60
2019-03-23T20:36:31.949Z,16.33
2019-03-23T20:39:01.014Z,17.00
2019-03-23T20:41:30.365Z,16.80
2019-03-23T20:44:09.136Z,17.33
2019-03-23T20:46:30.815Z,16.87
2019-03-23T20:49:00.512Z,19.30
2019-03-23T20:51:30.183Z,18.27
2019-03-23T20:53:59.526Z,17.80
2019-03-23T20:56:28.402Z,18.20
2019-03-23T20:58:57.365Z,18.57
2019-03-23T21:01:26.455Z,17.60
2019-03-23T21:03:55.887Z,16.93
2019-03-23T21:06:24.991Z,16.60
2019-03-23T21:08:53.937Z,17.67
2019-03-23T21:11:22.907Z,16.70
2019-03-23T21:13:52.516Z,18.30
2019-03-23T21:16:21.610Z,18.43
2019-03-23T21:18:50.570Z,17.97
2019-03-23T21:21:20.130Z,16.70
2019-03-23T21:23:51.934Z,17.83
2019-03-23T21:26:20.431Z,16.63
2019-03-23T21:28:49.989Z,17.97
2019-03-23T21:31:18.878Z,16.50
2019-03-23T21:33:47.940Z,16.97
2019-03-23T21:36:17.323Z,16.30
2019-03-23T21:38:46.179Z,17.57
2019-03-23T21:41:15.829Z,17.90
2019-03-23T21:43:45.553Z,19.10
2019-03-23T21:46:14.446Z,16.80
2019-03-23T21:48:44.067Z,18.23
2019-03-23T21:51:13.381Z,16.90
2019-03-23T21:53:42.690Z,17.93
2019-03-23T21:56:11.946Z,16.17
2019-03-23T21:58:41.455Z,18.93
2019-03-23T22:01:10.569Z,19.03
2019-03-23T22:03:39.419Z,17.90
2019-03-23T22:06:08.311Z,17.10
2019-03-23T22:08:37.173Z,17.83
2019-03-23T22:11:06.017Z,16.50
2019-03-23T22:13:34.898Z,16.63
2019-03-23T22:16:05.213Z,17.50
2019-03-23T22:18:34.291Z,17.13
2019-03-23T22:21:03.195Z,16.97
2019-03-23T22:23:32.038Z,17.33
2019-03-23T22:26:00.915Z,18.13
2019-03-23T22:28:29.803Z,17.57
2019-03-23T22:30:58.690Z,18.23
2019-03-23T22:33:27.543Z,17.00
2019-03-23T22:35:56.439Z,17.53
2019-03-23T22:38:25.331Z,16.77
2019-03-23T22:40:54.220Z,18.23
2019-03-23T22:43:23.213Z,15.83
2019-03-23T22:45:51.704Z,15.80
2019-03-23T22:48:20.380Z,17.00
2019-03-23T22:50:48.832Z,17.30
2019-03-23T22:53:17.326Z,17.00
2019-03-23T22:55:45.807Z,17.30
2019-03-23T22:58:14.268Z,16.73
2019-03-23T23:00:46.882Z,14.73
2019-03-23T23:03:15.470Z,16.20
2019-03-23T23:05:44.152Z,17.13
2019-03-23T23:08:12.760Z,17.50
2019-03-23T23:10:41.421Z,16.63
2019-03-23T23:13:09.866Z,16.30
2019-03-23T23:15:38.374Z,16.43
2019-03-23T23:18:06.816Z,16.67
2019-03-23T23:20:35.263Z,17.33
2019-03-23T23:23:04.979Z,18.12
2019-03-23T23:25:34.476Z,17.93
2019-03-23T23:28:03.195Z,17.20
2019-03-23T23:30:32.883Z,16.40
2019-03-23T23:33:01.342Z,17.57
2019-03-23T23:35:29.817Z,18.33
2019-03-23T23:37:58.296Z,17.70
2019-03-23T23:40:26.746Z,18.00
2019-03-23T23:42:55.256Z,19.37
2019-03-23T23:45:23.708Z,19.40
2019-03-23T23:47:52.223Z,20.50
2019-03-23T23:50:20.764Z,20.00
2019-03-23T23:52:49.387Z,20.43
2019-03-23T23:55:17.915Z,24.63
2019-03-23T23:57:46.428Z,23.13
